Time;durP1;ratioP1;P1;durP2;ratioP2;P2;SDS_P1;SDS_P2;PMS_P1;PMS_P2;Temp;Humidity;BMP_temperature;BMP_pressure;BME280_temperature;BME280_humidity;BME280_pressure;Samples;Min_cycle;Max_cycle;Signal;HPM_P1;HPM_P2
2022/09/23 00:00:41;;;;;;;1.80;1.70;;;;;;;14.63;49.18;99692.75;5074456;28;20437;-79
2022/09/23 00:03:07;;;;;;;2.95;2.65;;;;;;;14.22;48.87;99623.75;5074324;28;20035;-79
2022/09/23 00:05:34;;;;;;;2.53;1.85;;;;;;;14.75;49.42;99725.69;5073920;28;20501;-79
2022/09/23 00:07:59;;;;;;;2.17;1.60;;;;;;;14.66;49.49;99718.94;5073910;28;20079;-79
2022/09/23 00:10:27;;;;;;;1.65;1.55;;;;;;;14.23;49.49;99666.03;5072691;28;20485;-79
2022/09/23 00:12:54;;;;;;;1.60;1.50;;;;;;;13.99;49.43;99618.72;5072085;28;20016;-79
2022/09/23 00:15:20;;;;;;;2.08;1.88;;;;;;;14.54;49.59;99710.72;5073773;28;20039;-79
2022/09/23 00:17:46;;;;;;;2.45;1.80;;;;;;;14.29;49.50;99669.72;5073723;28;20052;-79
2022/09/23 00:20:13;;;;;;;1.60;1.50;;;;;;;13.81;49.59;99597.22;5073681;28;20048;-79
2022/09/23 00:22:38;;;;;;;1.70;1.60;;;;;;;14.53;49.83;99708.25;5073686;28;20036;-79
2022/09/23 00:25:08;;;;;;;1.65;1.55;;;;;;;14.40;49.75;99684.28;5072402;28;20557;-79
2022/09/23 00:27:34;;;;;;;3.38;1.73;;;;;;;13.98;49.83;99635.69;5073468;28;20024;-79
2022/09/23 00:30:01;;;;;;;1.73;1.63;;;;;;;14.34;50.16;99677.91;5072123;28;20162;-79
2022/09/23 00:32:26;;;;;;;2.13;1.80;;;;;;;14.19;50.18;99680.72;5073561;28;20025;-79
2022/09/23 00:34:52;;;;;;;2.47;1.88;;;;;;;14.14;50.34;99669.06;5073575;28;20031;-79
2022/09/23 00:37:18;;;;;;;2.22;1.63;;;;;;;13.72;50.34;99598.41;5073465;28;20117;-79
2022/09/23 00:39:45;;;;;;;1.85;1.70;;;;;;;14.20;50.48;99690.34;5073183;28;20050;-79
2022/09/23 00:42:15;;;;;;;2.75;1.60;;;;;;;13.86;50.63;99623.97;5073352;28;20025;-79
2022/09/23 00:44:51;;;;;;;1.88;1.63;;;;;;;14.39;50.88;99707.38;5072224;28;20111;-79
2022/09/23 00:47:35;;;;;;;2.15;1.50;;;;;;;14.38;51.18;99708.38;5073483;28;20066;-79
2022/09/23 00:50:09;;;;;;;1.90;1.60;;;;;;;14.39;51.06;99706.53;5072061;28;20070;-79
2022/09/23 00:52:36;;;;;;;1.70;1.60;;;;;;;14.25;51.12;99695.88;5073405;28;20021;-79
2022/09/23 00:55:07;;;;;;;2.50;1.63;;;;;;;14.38;51.05;99713.69;5073135;28;20029;-78
2022/09/23 00:57:35;;;;;;;1.45;1.35;;;;;;;13.92;51.03;99658.53;5073368;28;20025;-79
2022/09/23 01:00:03;;;;;;;1.88;1.75;;;;;;;14.37;51.06;99713.88;5072985;28;20483;-79
2022/09/23 01:02:28;;;;;;;1.88;1.70;;;;;;;14.39;51.10;99714.50;5071818;28;20028;-79
2022/09/23 01:04:54;;;;;;;2.10;1.90;;;;;;;13.74;51.07;99612.28;5073087;28;20408;-79
2022/09/23 01:07:19;;;;;;;1.88;1.77;;;;;;;14.39;51.19;99712.69;5071573;28;20029;-79
2022/09/23 01:09:47;;;;;;;1.70;1.60;;;;;;;13.96;51.18;99638.53;5073082;28;20032;-78
2022/09/23 01:12:12;;;;;;;1.75;1.65;;;;;;;14.38;51.32;99713.69;5073039;28;20024;-79
2022/09/23 01:14:54;;;;;;;1.70;1.60;;;;;;;13.57;51.63;99585.25;5072820;28;20453;-79
2022/09/23 01:17:43;;;;;;;2.67;1.95;;;;;;;13.75;52.19;99616.56;5071384;28;20412;-79
2022/09/23 01:20:18;;;;;;;2.05;1.75;;;;;;;14.26;51.76;99702.00;5071943;28;20033;-79
2022/09/23 01:22:53;;;;;;;2.20;1.75;;;;;;;13.68;52.03;99609.41;5071563;28;20043;-79
2022/09/23 01:25:21;;;;;;;2.10;1.60;;;;;;;14.21;51.85;99696.47;5071687;28;20094;-79
2022/09/23 01:28:10;;;;;;;2.42;1.77;;;;;;;13.57;52.11;99606.50;5071169;28;20485;-78
2022/09/23 01:30:59;;;;;;;2.67;1.83;;;;;;;13.98;52.92;99663.03;5072491;28;20486;-79
2022/09/23 01:33:34;;;;;;;2.55;1.80;;;;;;;13.85;52.26;99654.19;5072350;28;20108;-79
2022/09/23 01:36:15;;;;;;;5.20;1.83;;;;;;;14.07;52.21;99698.22;5072556;28;20090;-79
2022/09/23 01:39:02;;;;;;;2.58;1.55;;;;;;;14.18;52.42;99699.50;5072429;28;20066;-79
2022/09/23 01:41:52;;;;;;;2.22;2.03;;;;;;;14.25;52.45;99705.66;5071047;28;20059;-79
2022/09/23 01:44:29;;;;;;;1.83;1.50;;;;;;;14.17;52.27;99693.38;5070723;28;20064;-78
2022/09/23 01:47:10;;;;;;;1.83;1.60;;;;;;;14.35;52.44;99698.16;5072188;28;20016;-79
2022/09/23 01:49:47;;;;;;;1.92;1.80;;;;;;;14.39;52.22;99704.72;5070951;28;20025;-79
2022/09/23 01:52:31;;;;;;;2.00;1.80;;;;;;;14.20;52.20;99671.75;5072211;28;20115;-79
2022/09/23 01:55:08;;;;;;;1.92;1.77;;;;;;;14.21;52.54;99702.59;5071963;28;20056;-79
2022/09/23 01:57:45;;;;;;;1.90;1.80;;;;;;;14.07;52.68;99678.81;5071966;28;20027;-79
2022/09/23 02:00:15;;;;;;;1.70;1.60;;;;;;;13.74;52.62;99613.09;5070518;28;20049;-79
2022/09/23 02:02:48;;;;;;;3.92;1.90;;;;;;;14.16;52.63;99710.34;5071986;28;20031;-79
2022/09/23 02:05:37;;;;;;;2.65;1.80;;;;;;;14.18;52.68;99708.28;5071933;28;20024;-79
2022/09/23 02:08:15;;;;;;;2.50;1.70;;;;;;;13.88;53.13;99669.72;5070598;28;20412;-79
2022/09/23 02:10:48;;;;;;;2.95;1.73;;;;;;;14.12;53.00;99708.22;5071935;28;20024;-79
2022/09/23 02:13:27;;;;;;;4.35;1.83;;;;;;;13.44;52.75;99623.16;5071652;28;20501;-79
2022/09/23 02:15:59;;;;;;;4.13;2.00;;;;;;;14.15;53.14;99721.16;5071332;28;20417;-79
2022/09/23 02:18:29;;;;;;;3.55;2.30;;;;;;;13.56;52.53;99626.06;5071403;28;20020;-79
2022/09/23 02:21:01;;;;;;;3.47;2.50;;;;;;;13.88;52.15;99691.78;5071387;28;20493;-79
2022/09/23 02:23:41;;;;;;;12.43;2.90;;;;;;;14.07;52.28;99716.78;5071530;28;20032;-79
2022/09/23 02:26:33;;;;;;;2.97;2.45;;;;;;;13.38;52.28;99609.81;5070342;28;20024;-79
2022/09/23 02:29:13;;;;;;;;;;;;;;;13.81;52.51;99714.81;5067317;28;20483;-78
2022/09/23 02:31:44;;;;;;;6.70;2.72;;;;;;;13.90;52.01;99713.63;5070154;28;19965;-79
2022/09/23 02:34:45;;;;;;;3.85;2.58;;;;;;;13.86;52.29;99708.91;5071499;28;20045;-79
2022/09/23 02:37:30;;;;;;;3.42;2.30;;;;;;;13.86;52.07;99711.56;5071323;28;20090;-79
2022/09/23 02:40:22;;;;;;;4.93;2.60;;;;;;;13.84;52.17;99708.28;5070169;28;20082;-79
2022/09/23 02:43:11;;;;;;;2.80;2.55;;;;;;;13.88;52.31;99715.66;5070050;28;20025;-79
2022/09/23 02:45:37;;;;;;;2.47;2.28;;;;;;;13.49;51.98;99636.66;5071309;28;20020;-79
2022/09/23 02:48:12;;;;;;;4.65;2.65;;;;;;;13.48;51.91;99628.88;5070048;28;20107;-79
2022/09/23 02:50:38;;;;;;;5.85;2.50;;;;;;;13.78;51.86;99659.47;5071230;28;20520;-79
2022/09/23 02:53:04;;;;;;;3.95;2.40;;;;;;;13.45;51.70;99595.59;5071107;28;20107;-79
2022/09/23 02:55:31;;;;;;;5.22;2.35;;;;;;;13.99;52.35;99691.22;5070877;28;20063;-79
2022/09/23 02:58:01;;;;;;;4.15;2.35;;;;;;;13.70;52.54;99632.28;5071087;28;20028;-79
2022/09/23 03:00:48;;;;;;;3.92;2.83;;;;;;;14.19;52.92;99711.78;5070949;28;20444;-79
2022/09/23 03:03:55;;;;;;;2.58;2.38;;;;;;;14.16;52.86;99707.69;5071126;28;20489;-79
2022/09/23 03:06:24;;;;;;;2.80;2.58;;;;;;;14.09;52.90;99711.28;5062045;28;20394;-79
2022/09/23 03:09:00;;;;;;;2.92;2.60;;;;;;;14.09;53.44;99709.44;5071114;28;20031;-79
2022/09/23 03:11:26;;;;;;;2.92;2.63;;;;;;;13.78;53.41;99679.88;5071276;28;20027;-79
2022/09/23 03:14:20;;;;;;;4.25;3.17;;;;;;;13.90;53.20;99692.41;5070957;28;20025;-79
2022/09/23 03:17:02;;;;;;;5.68;3.55;;;;;;;13.53;53.02;99643.19;5070777;28;20017;-79
2022/09/23 03:19:27;;;;;;;4.80;3.10;;;;;;;13.93;52.73;99715.91;5070816;28;20028;-79
2022/09/23 03:22:00;;;;;;;3.10;2.80;;;;;;;13.94;52.82;99730.00;5070885;28;20025;-79
2022/09/23 03:24:30;;;;;;;3.85;2.88;;;;;;;13.97;52.82;99724.28;5071145;28;20028;-79
2022/09/23 03:26:59;;;;;;;4.00;3.40;;;;;;;13.90;52.79;99703.03;5071226;28;20024;-79
2022/09/23 03:29:25;;;;;;;4.50;3.40;;;;;;;13.56;52.69;99658.72;5070702;28;20070;-79
2022/09/23 03:31:52;;;;;;;3.88;3.58;;;;;;;13.60;52.47;99643.25;5069582;28;20021;-79
2022/09/23 03:34:26;;;;;;;3.80;3.40;;;;;;;13.63;52.71;99656.13;5070903;28;20512;-79
2022/09/23 03:36:59;;;;;;;4.20;3.90;;;;;;;14.04;52.75;99714.53;5070781;28;20028;-78
2022/09/23 03:39:39;;;;;;;4.03;3.63;;;;;;;13.67;53.22;99665.31;5070802;28;20020;-79
2022/09/23 03:42:11;;;;;;;4.95;3.78;;;;;;;14.00;52.90;99724.72;5070762;28;20404;-79
2022/09/23 03:44:43;;;;;;;4.90;3.88;;;;;;;13.68;52.92;99666.97;5069668;28;20016;-79
2022/09/23 03:47:09;;;;;;;;;;;;;;;13.80;53.72;99723.78;5071379;28;20578;-79
2022/09/23 03:49:38;;;;;;;4.65;3.70;;;;;;;13.45;52.74;99647.84;5073650;28;19995;-79
2022/09/23 03:52:03;;;;;;;5.18;3.38;;;;;;;13.50;52.85;99648.06;5076867;28;20020;-79
2022/09/23 03:54:29;;;;;;;4.70;3.50;;;;;;;13.94;53.02;99725.50;5078187;28;20024;-80
2022/09/23 03:56:58;;;;;;;6.25;3.53;;;;;;;13.92;53.09;99724.06;5075953;28;20485;-79
2022/09/23 03:59:25;;;;;;;4.65;3.60;;;;;;;13.89;52.99;99732.41;5074133;28;20085;-79
2022/09/23 04:01:51;;;;;;;6.22;3.90;;;;;;;14.02;53.24;99736.97;5072968;28;20045;-79
2022/09/23 04:04:17;;;;;;;5.18;4.43;;;;;;;13.69;53.01;99689.81;5074316;28;20056;-79
2022/09/23 04:06:42;;;;;;;6.10;4.57;;;;;;;13.54;52.90;99663.41;5074280;28;20025;-79
2022/09/23 04:09:08;;;;;;;4.68;3.92;;;;;;;13.94;53.22;99738.78;5074164;28;20060;-79
2022/09/23 04:11:34;;;;;;;4.85;4.35;;;;;;;13.92;53.51;99734.69;5074113;28;20067;-79
2022/09/23 04:13:59;;;;;;;5.90;3.95;;;;;;;13.58;53.47;99740.78;5072740;28;20413;-79
2022/09/23 04:16:25;;;;;;;5.35;4.20;;;;;;;13.48;53.59;99679.28;5074113;28;20033;-79
2022/09/23 04:18:50;;;;;;;4.90;3.95;;;;;;;13.72;53.53;99713.31;5072896;28;20029;-79
2022/09/23 04:21:16;;;;;;;5.13;3.65;;;;;;;13.57;53.83;99726.69;5072999;28;20409;-79
2022/09/23 04:23:42;;;;;;;4.68;4.05;;;;;;;13.34;53.69;99673.84;5077640;28;20043;-79
2022/09/23 04:26:07;;;;;;;9.05;6.70;;;;;;;13.38;53.65;99694.69;5078660;28;20088;-79
2022/09/23 04:28:33;;;;;;;8.85;7.30;;;;;;;13.87;53.84;99760.97;5075570;28;20078;-79
2022/09/23 04:30:59;;;;;;;9.02;6.07;;;;;;;13.45;53.71;99704.34;5073598;28;20028;-79
2022/09/23 04:33:24;;;;;;;6.65;5.25;;;;;;;13.44;53.93;99704.53;5074063;28;20071;-79
2022/09/23 04:35:51;;;;;;;5.60;5.07;;;;;;;13.81;53.70;99759.91;5073702;28;20111;-79
2022/09/23 04:38:17;;;;;;;5.95;5.35;;;;;;;13.27;53.88;99680.94;5073625;28;20043;-79
2022/09/23 04:40:43;;;;;;;6.43;4.93;;;;;;;13.77;53.87;99771.13;5072043;28;20086;-79
2022/09/23 04:43:08;;;;;;;7.88;5.45;;;;;;;11.97;53.92;99486.13;5073391;28;20040;-79
2022/09/23 04:45:34;;;;;;;5.70;5.10;;;;;;;13.04;54.04;99657.25;5072378;28;20055;-79
2022/09/23 04:48:01;;;;;;;7.15;5.13;;;;;;;13.46;53.95;99710.47;5072049;28;20545;-79
2022/09/23 04:50:27;;;;;;;9.00;6.53;;;;;;;13.87;53.78;99758.31;5072083;28;20031;-79
2022/09/23 04:52:53;;;;;;;9.13;6.45;;;;;;;13.34;53.62;99668.53;5073160;28;20024;-79
2022/09/23 04:55:19;;;;;;;9.15;5.93;;;;;;;13.62;53.93;99732.22;5073163;28;20090;-79
2022/09/23 04:57:44;;;;;;;5.93;5.00;;;;;;;13.00;53.92;99615.44;5071790;28;20029;-79
2022/09/23 05:00:14;;;;;;;5.93;5.18;;;;;;;13.55;53.99;99704.00;5072715;28;20049;-79
2022/09/23 05:02:47;;;;;;;10.15;6.22;;;;;;;13.94;53.94;99767.97;5073155;28;20032;-79
2022/09/23 05:05:19;;;;;;;8.25;5.75;;;;;;;13.93;53.92;99770.81;5071712;28;20024;-79
2022/09/23 05:07:44;;;;;;;11.25;6.68;;;;;;;13.96;54.24;99770.44;5072935;28;20066;-79
2022/09/23 05:10:10;;;;;;;8.75;5.80;;;;;;;13.86;54.13;99746.88;5073172;28;20083;-79
2022/09/23 05:12:35;;;;;;;11.50;6.00;;;;;;;11.62;53.96;99384.59;5071569;28;20082;-80
2022/09/23 05:15:01;;;;;;;11.77;6.30;;;;;;;13.58;53.42;99682.41;5073080;28;20025;-79
2022/09/23 05:17:27;;;;;;;9.63;6.55;;;;;;;13.57;53.76;99667.50;5071479;28;20032;-79
2022/09/23 05:19:53;;;;;;;7.78;5.85;;;;;;;14.08;53.71;99755.59;5072624;28;20048;-79
2022/09/23 05:22:18;;;;;;;6.25;5.13;;;;;;;14.28;53.75;99784.94;5072624;28;20486;-79
2022/09/23 05:24:43;;;;;;;10.30;5.35;;;;;;;14.29;53.69;99778.63;5072572;28;20028;-79
2022/09/23 05:27:09;;;;;;;9.93;5.47;;;;;;;14.25;53.65;99777.38;5072498;28;20039;-79
2022/09/23 05:29:34;;;;;;;6.28;5.00;;;;;;;14.34;53.44;99786.81;5072395;28;20508;-79
2022/09/23 05:32:00;;;;;;;6.45;5.25;;;;;;;14.21;53.31;99754.88;5072293;28;20032;-79
2022/09/23 05:34:26;;;;;;;9.48;5.60;;;;;;;14.06;53.04;99714.34;5072131;28;20444;-79
2022/09/23 05:36:51;;;;;;;6.07;5.38;;;;;;;14.56;52.98;99783.06;5072131;28;20020;-79
2022/09/23 05:39:16;;;;;;;8.20;5.68;;;;;;;14.62;53.01;99790.25;5071027;28;20108;-79
2022/09/23 05:41:42;;;;;;;9.18;6.00;;;;;;;14.08;52.91;99683.91;5072291;28;20032;-79
2022/09/23 05:44:08;;;;;;;7.25;4.93;;;;;;;14.57;52.56;99750.19;5070917;28;20036;-79
2022/09/23 05:46:33;;;;;;;5.88;5.13;;;;;;;14.59;52.54;99745.47;5072289;28;20031;-79
2022/09/23 05:49:00;;;;;;;7.70;4.57;;;;;;;13.80;52.26;99612.31;5072056;28;20056;-79
2022/09/23 05:51:27;;;;;;;5.60;5.05;;;;;;;14.94;51.76;99788.75;5071803;28;20515;-79
2022/09/23 05:53:54;;;;;;;10.20;5.65;;;;;;;14.50;51.51;99716.63;5071563;28;20039;-79
2022/09/23 05:56:22;;;;;;;6.28;4.78;;;;;;;15.05;51.30;99782.03;5071776;28;20035;-79
2022/09/23 05:58:49;;;;;;;9.82;4.47;;;;;;;14.99;51.17;99764.22;5070586;28;20437;-78
2022/09/23 06:01:17;;;;;;;6.43;4.22;;;;;;;14.75;51.07;99725.69;5071432;28;20083;-79
2022/09/23 06:03:49;;;;;;;6.57;4.55;;;;;;;14.70;51.05;99743.25;5071752;28;20059;-78
2022/09/23 06:06:16;;;;;;;7.07;4.68;;;;;;;15.21;50.77;99780.84;5071661;28;20086;-79
2022/09/23 06:08:45;;;;;;;6.25;4.75;;;;;;;15.27;50.96;99774.72;5071830;28;20071;-78
2022/09/23 06:11:11;;;;;;;6.90;4.15;;;;;;;14.38;50.95;99635.84;5070101;28;20480;-79
2022/09/23 06:13:37;;;;;;;5.55;3.30;;;;;;;14.98;50.34;99729.88;5071528;28;20424;-78
2022/09/23 06:16:08;;;;;;;5.10;3.60;;;;;;;15.30;50.40;99776.16;5071528;28;20024;-79
2022/09/23 06:18:35;;;;;;;3.75;3.45;;;;;;;14.99;50.07;99731.50;5071310;28;20028;-79
2022/09/23 06:21:02;;;;;;;7.13;3.95;;;;;;;14.91;50.03;99727.19;5071030;28;20021;-79
2022/09/23 06:23:27;;;;;;;5.32;4.03;;;;;;;15.32;49.53;99777.59;5071045;28;20079;-79
2022/09/23 06:25:53;;;;;;;9.75;3.60;;;;;;;14.61;49.52;99662.91;5071015;28;20497;-79
2022/09/23 06:28:19;;;;;;;4.20;3.53;;;;;;;14.98;49.45;99721.91;5070029;28;20504;-79
2022/09/23 06:30:44;;;;;;;5.30;3.20;;;;;;;15.08;49.04;99732.94;5069874;28;20091;-79
2022/09/23 06:33:10;;;;;;;6.55;3.70;;;;;;;14.58;48.94;99660.66;5071109;28;20029;-78
2022/09/23 06:35:35;;;;;;;4.82;3.55;;;;;;;15.43;48.72;99782.31;5071116;28;20032;-79
2022/09/23 06:38:04;;;;;;;3.92;3.58;;;;;;;15.37;48.28;99740.53;5071128;28;20028;-79
2022/09/23 06:40:30;;;;;;;4.63;4.05;;;;;;;15.19;48.12;99709.22;5071266;28;20024;-79
2022/09/23 06:43:00;;;;;;;4.70;4.20;;;;;;;15.31;48.43;99722.75;5070937;28;20025;-79
2022/09/23 06:45:27;;;;;;;5.07;4.30;;;;;;;15.02;48.12;99667.28;5071186;28;20021;-79
2022/09/23 06:47:56;;;;;;;3.80;3.50;;;;;;;15.72;47.83;99765.16;5071146;28;20051;-79
2022/09/23 06:50:26;;;;;;;3.70;3.40;;;;;;;15.89;46.85;99774.38;5069812;28;20055;-79
2022/09/23 06:52:54;;;;;;;3.85;3.55;;;;;;;15.33;47.18;99686.09;5071073;28;20505;-79
2022/09/23 06:55:22;;;;;;;5.82;4.10;;;;;;;15.50;46.88;99702.47;5070764;28;20117;-79
2022/09/23 06:57:47;;;;;;;3.83;3.42;;;;;;;15.14;46.76;99647.84;5071040;28;20043;-78
2022/09/23 07:00:13;;;;;;;6.45;3.92;;;;;;;15.95;46.56;99756.75;5069361;28;20528;-79
2022/09/23 07:02:41;;;;;;;6.43;3.60;;;;;;;15.72;46.36;99727.09;5070953;28;20033;-79
2022/09/23 07:05:08;;;;;;;5.53;3.85;;;;;;;15.68;45.86;99715.22;5070715;28;20056;-79
2022/09/23 07:07:35;;;;;;;4.38;3.90;;;;;;;16.21;45.77;99793.16;5071326;28;20048;-79
2022/09/23 07:10:01;;;;;;;4.47;4.07;;;;;;;15.77;45.36;99705.97;5071045;28;20047;-79
2022/09/23 07:12:26;;;;;;;6.03;5.28;;;;;;;16.29;45.44;99792.13;5071065;28;20493;-79
2022/09/23 07:14:52;;;;;;;3.90;3.40;;;;;;;15.72;45.12;99711.09;5071031;28;20095;-79
2022/09/23 07:17:17;;;;;;;5.15;4.68;;;;;;;15.47;45.36;99657.66;5071303;28;20082;-79
2022/09/23 07:19:43;;;;;;;4.40;4.00;;;;;;;16.29;45.01;99795.59;5069612;28;20036;-78
2022/09/23 07:22:08;;;;;;;4.43;3.78;;;;;;;15.69;44.95;99695.56;5071143;28;20096;-78
2022/09/23 07:24:33;;;;;;;3.85;3.55;;;;;;;16.31;45.14;99804.19;5073907;28;20489;-79
2022/09/23 07:26:59;;;;;;;4.70;4.30;;;;;;;15.90;45.43;99745.91;5074923;28;20025;-79
2022/09/23 07:29:25;;;;;;;5.70;4.15;;;;;;;16.30;45.33;99807.06;5074837;28;20023;-78
2022/09/23 07:31:50;;;;;;;5.13;4.70;;;;;;;16.01;45.29;99755.91;5073856;28;20549;-78
2022/09/23 07:34:16;;;;;;;5.90;5.40;;;;;;;16.18;44.92;99758.94;5073304;28;20099;-79
2022/09/23 07:36:41;;;;;;;4.75;4.30;;;;;;;16.18;45.19;99764.28;5074347;28;20027;-78
2022/09/23 07:39:10;;;;;;;5.68;5.18;;;;;;;16.23;45.31;99772.47;5074604;28;20024;-79
2022/09/23 07:41:35;;;;;;;5.82;5.22;;;;;;;14.95;44.89;99571.56;5074229;28;20022;-78
2022/09/23 07:44:01;;;;;;;8.32;7.55;;;;;;;16.01;44.93;99720.47;5073135;28;20082;-78
2022/09/23 07:46:29;;;;;;;6.97;6.38;;;;;;;16.61;44.88;99806.41;5073090;28;20017;-78
2022/09/23 07:48:55;;;;;;;7.13;6.13;;;;;;;16.05;44.39;99716.38;5074378;28;20020;-78
2022/09/23 07:51:28;;;;;;;4.38;3.78;;;;;;;16.40;44.38;99784.31;5072965;28;20036;-78
2022/09/23 07:53:55;;;;;;;4.22;3.88;;;;;;;16.56;43.80;99806.22;5074725;28;20059;-79
2022/09/23 07:56:23;;;;;;;6.47;5.80;;;;;;;16.32;44.30;99768.53;5074825;28;20032;-78
2022/09/23 07:58:58;;;;;;;4.60;3.80;;;;;;;16.63;43.35;99796.34;5086062;28;20408;-78
2022/09/23 08:01:44;;;;;;;5.05;4.47;;;;;;;16.46;43.75;99738.19;5082996;28;20075;-79
2022/09/23 08:04:12;;;;;;;4.07;3.78;;;;;;;16.59;42.78;99749.81;5072715;28;20020;-78
2022/09/23 08:06:43;;;;;;;4.22;3.83;;;;;;;17.17;42.43;99800.44;5073999;28;20016;-79
2022/09/23 08:09:09;;;;;;;4.22;3.80;;;;;;;17.24;42.20;99807.38;5074218;28;20038;-79
2022/09/23 08:11:38;;;;;;;3.90;3.58;;;;;;;16.59;42.06;99672.50;5074104;28;20017;-78
2022/09/23 08:14:03;;;;;;;6.50;5.88;;;;;;;16.76;42.15;99695.00;5072939;28;20096;-78
2022/09/23 08:16:29;;;;;;;4.43;3.88;;;;;;;16.80;41.80;99702.34;5073821;28;20021;-78
2022/09/23 08:18:54;;;;;;;3.95;3.60;;;;;;;17.45;41.51;99779.53;5074170;28;20517;-78
2022/09/23 08:21:21;;;;;;;3.40;3.15;;;;;;;17.71;41.19;99787.34;5073874;28;20020;-78
2022/09/23 08:23:47;;;;;;;3.85;3.45;;;;;;;17.31;40.56;99719.25;5073969;28;20158;-79
2022/09/23 08:26:12;;;;;;;4.43;4.03;;;;;;;17.65;40.62;99742.78;5073905;28;20154;-79
2022/09/23 08:28:38;;;;;;;3.75;3.42;;;;;;;17.92;40.14;99759.44;5072379;28;20512;-79
2022/09/23 08:31:04;;;;;;;4.05;3.38;;;;;;;18.11;40.40;99779.00;5077767;28;20507;-78
2022/09/23 08:33:29;;;;;;;3.67;3.35;;;;;;;18.12;39.64;99777.94;5076788;28;20111;-79
2022/09/23 08:36:01;;;;;;;3.58;3.05;;;;;;;18.21;39.44;99757.09;5073917;28;20570;-78
2022/09/23 08:38:28;;;;;;;3.50;3.20;;;;;;;18.14;39.63;99729.63;5072046;28;20024;-79
2022/09/23 08:41:20;;;;;;;3.53;3.22;;;;;;;18.54;38.90;99762.88;5073253;28;20374;-78
2022/09/23 08:43:53;;;;;;;4.93;4.50;;;;;;;18.67;39.04;99756.59;5069550;28;20044;-79
2022/09/23 08:46:26;;;;;;;4.28;3.88;;;;;;;18.10;39.18;99633.88;5073087;28;20024;-79
2022/09/23 08:48:53;;;;;;;6.03;3.88;;;;;;;18.85;38.99;99764.59;5071847;28;20027;-79
2022/09/23 08:51:28;;;;;;;4.60;3.92;;;;;;;18.96;37.74;99709.50;5073385;28;20078;-79
2022/09/23 08:53:53;;;;;;;4.07;3.78;;;;;;;18.80;38.21;99670.00;5073381;28;20017;-78
2022/09/23 08:56:22;;;;;;;6.97;6.28;;;;;;;19.35;38.22;99749.06;5073491;28;20451;-78
2022/09/23 08:59:17;;;;;;;4.28;3.88;;;;;;;19.14;37.83;99688.00;5072028;28;20602;-80
2022/09/23 09:01:54;;;;;;;4.90;4.50;;;;;;;19.71;37.67;99744.59;5071462;28;20048;-79
2022/09/23 09:04:34;;;;;;;5.78;5.18;;;;;;;19.84;37.22;99759.63;5073281;28;20016;-79
2022/09/23 09:07:06;;;;;;;3.88;3.58;;;;;;;19.58;36.68;99696.59;5071835;28;20021;-78
2022/09/23 09:09:50;;;;;;;6.28;3.47;;;;;;;19.66;35.68;99707.78;5073108;28;20024;-79
2022/09/23 09:12:29;;;;;;;3.55;3.25;;;;;;;19.71;35.05;99709.75;5073003;28;20032;-79
2022/09/23 09:15:14;;;;;;;6.65;5.93;;;;;;;20.16;35.45;99742.16;5072799;28;20077;-78
2022/09/23 09:18:06;;;;;;;5.47;4.97;;;;;;;20.27;34.95;99735.94;5072967;28;20078;-79
2022/09/23 09:20:56;;;;;;;4.13;3.72;;;;;;;20.44;34.61;99741.41;5072682;28;20017;-79
2022/09/23 09:23:37;;;;;;;5.07;3.90;;;;;;;20.63;35.11;99742.06;5072174;28;20120;-78
2022/09/23 09:26:04;;;;;;;;;;;;;;;20.69;34.58;99745.66;5072711;28;20020;-78
2022/09/23 09:29:12;;;;;;;4.55;4.03;;;;;;;20.85;34.36;99731.50;5072438;28;19908;-79
2022/09/23 09:31:42;;;;;;;5.10;3.92;;;;;;;20.84;34.41;99735.22;5030302;28;20494;-79
2022/09/23 09:34:46;;;;;;;5.28;4.28;;;;;;;20.54;33.79;99641.56;5066697;28;20036;-79
2022/09/23 09:37:24;;;;;;;5.80;4.40;;;;;;;21.10;33.88;99717.72;5072383;28;20024;-78
2022/09/23 09:39:50;;;;;;;6.18;5.57;;;;;;;21.23;33.07;99707.50;5072449;28;20028;-78
2022/09/23 09:42:25;;;;;;;5.10;2.78;;;;;;;21.74;31.86;99750.50;5070988;28;20398;-79
2022/09/23 09:44:54;;;;;;;5.00;2.53;;;;;;;21.84;32.21;99746.09;5071259;28;20414;-79
2022/09/23 09:47:45;;;;;;;2.97;2.67;;;;;;;21.99;31.67;99753.56;5070336;28;20389;-79
2022/09/23 09:50:20;;;;;;;4.93;4.43;;;;;;;21.44;31.89;99657.59;5072188;28;20030;-79
2022/09/23 09:52:47;;;;;;;4.80;4.40;;;;;;;21.60;31.37;99671.28;5071203;28;20029;-78
2022/09/23 09:55:12;;;;;;;3.63;3.33;;;;;;;22.24;31.12;99744.22;5070576;28;20124;-79
2022/09/23 09:57:45;;;;;;;4.90;3.03;;;;;;;21.96;30.63;99688.72;5070748;28;20115;-77
2022/09/23 10:00:21;;;;;;;3.45;2.58;;;;;;;22.34;30.29;99760.53;5071900;28;20476;-79
2022/09/23 10:02:52;;;;;;;4.13;3.72;;;;;;;21.97;30.03;99685.78;5071760;28;20104;-79
2022/09/23 10:05:30;;;;;;;2.83;2.50;;;;;;;22.12;29.75;99687.88;5071910;28;20020;-78
2022/09/23 10:08:23;;;;;;;2.33;2.13;;;;;;;22.09;29.63;99662.31;5071703;28;20111;-78
2022/09/23 10:10:53;;;;;;;5.03;3.60;;;;;;;22.68;28.88;99739.69;5071762;28;20461;-77
2022/09/23 10:13:22;;;;;;;4.22;2.53;;;;;;;22.55;28.82;99699.69;5070454;28;20027;-78
2022/09/23 10:15:48;;;;;;;3.63;2.88;;;;;;;22.48;28.84;99683.75;5071749;28;20021;-78
2022/09/23 10:18:19;;;;;;;3.53;2.83;;;;;;;22.78;28.57;99745.19;5071777;28;20095;-79
2022/09/23 10:20:45;;;;;;;3.67;3.17;;;;;;;22.17;29.19;99691.44;5071704;28;20414;-78
2022/09/23 10:23:19;;;;;;;3.35;2.85;;;;;;;21.95;28.42;99636.81;5071553;28;20020;-79
2022/09/23 10:25:56;;;;;;;7.18;6.47;;;;;;;21.26;28.41;99512.84;5070309;28;20405;-79
2022/09/23 10:28:54;;;;;;;6.78;6.07;;;;;;;22.39;28.92;99726.44;5071745;28;20469;-78
2022/09/23 10:31:30;;;;;;;4.60;2.72;;;;;;;22.54;28.94;99723.13;5071640;28;20520;-79
2022/09/23 10:33:59;;;;;;;4.07;3.38;;;;;;;21.68;29.21;99627.88;5071505;28;20020;-79
2022/09/23 10:36:31;;;;;;;3.40;2.28;;;;;;;21.11;29.25;99582.41;5071500;28;20020;-80
2022/09/23 10:47:59;;;;;;;5.00;2.60;;;;;;;21.25;30.65;99715.31;5071345;28;20036;-79
2022/09/23 10:50:33;;;;;;;3.05;2.28;;;;;;;21.16;30.89;99646.94;5071327;28;20489;-79
2022/09/23 10:53:25;;;;;;;3.13;1.67;;;;;;;21.20;31.31;99659.63;5071417;28;20516;-79
2022/09/23 10:56:07;;;;;;;4.47;3.25;;;;;;;21.18;31.56;99717.31;5071322;28;20029;-79
2022/09/23 10:58:35;;;;;;;3.70;2.45;;;;;;;20.89;31.94;99713.84;5076623;28;20025;-79
2022/09/23 11:01:24;;;;;;;6.47;5.88;;;;;;;21.14;31.81;99702.75;5077798;28;20105;-78
2022/09/23 11:04:00;;;;;;;3.90;3.58;;;;;;;21.72;31.53;99699.69;5078145;28;20021;-79
2022/09/23 11:06:37;;;;;;;5.90;5.15;;;;;;;22.32;30.96;99700.78;5077587;28;20515;-79
2022/09/23 11:09:27;;;;;;;3.90;2.45;;;;;;;22.95;30.51;99702.84;5076238;28;20020;-78
2022/09/23 11:11:53;;;;;;;4.65;4.18;;;;;;;23.10;29.37;99703.00;5077628;28;20093;-79
2022/09/23 11:14:42;;;;;;;2.65;2.45;;;;;;;23.39;28.93;99691.91;5077628;28;20515;-79
2022/09/23 11:17:13;;;;;;;2.35;2.15;;;;;;;23.74;28.97;99689.50;5068235;28;20424;-80
2022/09/23 11:19:51;;;;;;;;;;;;;;;23.84;28.33;99694.16;5077667;28;20082;-78
2022/09/23 11:22:36;;;;;;;2.90;1.80;;;;;;;23.67;28.38;99615.31;5077299;28;19916;-80
2022/09/23 11:25:11;;;;;;;3.65;3.35;;;;;;;23.97;28.36;99685.59;5076114;28;20048;-79
2022/09/23 11:28:22;;;;;;;3.33;2.92;;;;;;;22.88;28.21;99540.69;5076499;28;20056;-79
2022/09/23 11:31:20;;;;;;;2.03;1.85;;;;;;;22.77;28.60;99515.53;5077052;28;20028;-79
2022/09/23 11:33:48;;;;;;;2.45;2.25;;;;;;;24.11;28.27;99660.84;5077312;28;20024;-79
2022/09/23 11:36:22;;;;;;;1.85;1.58;;;;;;;24.29;27.27;99671.19;5077610;28;20020;-78
2022/09/23 11:38:51;;;;;;;1.60;1.50;;;;;;;24.32;27.56;99665.25;5076505;28;20028;-78
2022/09/23 11:41:36;;;;;;;2.47;1.90;;;;;;;23.77;27.69;99612.66;5076253;28;20485;-78
2022/09/23 11:44:22;;;;;;;2.03;1.52;;;;;;;23.03;27.59;99510.34;5076449;28;20024;-79
2022/09/23 11:46:54;;;;;;;2.67;1.98;;;;;;;23.54;27.87;99653.47;5078038;28;20017;-79
2022/09/23 11:49:41;;;;;;;6.57;4.18;;;;;;;23.27;27.86;99649.00;5076508;28;20021;-80
2022/09/23 11:52:20;;;;;;;2.50;2.30;;;;;;;22.78;28.15;99551.34;5076131;28;20138;-79
2022/09/23 11:54:55;;;;;;;2.38;2.13;;;;;;;23.25;28.09;99608.03;5077759;28;20158;-78
2022/09/23 11:57:30;;;;;;;2.75;2.55;;;;;;;23.34;27.22;99652.28;5077539;28;20507;-79
2022/09/23 12:00:02;;;;;;;2.92;2.65;;;;;;;23.22;28.13;99645.44;5077497;28;20053;-78
2022/09/23 12:02:47;;;;;;;2.28;2.08;;;;;;;23.18;27.93;99641.66;5077658;28;20162;-78
2022/09/23 12:05:21;;;;;;;1.98;1.75;;;;;;;23.10;27.64;99632.97;5077765;28;20409;-79